SMRA40 UAOL 242100
AAXX 24211
40080 42965 00402 10186 21045 39416 40095 52006=
40095 38598 426// 82707 10164 20117 40184 52002 885//=
40417 42960 02907 10217 20110 30105 40119 333 58009=
40703 42960 02302 10104 20068 38936 40165 53006 555 10086 29078 30905 4////=
40706 42568 10603 10104 20044 38673 40170 51004 81400 555 10075 29066 32408=
40712 42965 02603 10090 20008 38698 40163 50002 555 10054 29056 32804 4////=
40713 42964 00806 10096 20016 38682 40163 51001 555 10060 29057 30806=
40718 42560 70904 10142 20119 30264 40235 58001 85520 333 85625 87459 555 10=
40723 42960 00000 10072 20051 39011 40226 51004 555 10062 29086 33107=
40726 42960 00000 10086 20038 38676 40161 50001 555 10064 29072 30903 4////=
40727 42960 00000 10040 20031 38505 40184 57002 555 10036 29094 33405 4////=
40732 42560 50000 10136 20121 30248 40223 50002 82602 333 82720 84070 555 10=
40736 42560 70000 10146 20132 30251 40226 52010 87600 333 87720 555 10138 29=
40737 42960 00000 10126 20107 30207 40224 53009 555 10116 29088 33606=
40738 42960 02303 10127 20112 30239 40241 51012 555 10119 29091 32105=
40739 42965 00305 10110 21012 38717 40175 52008 555 10058 29043 30110=
40741 42660 60000 10172 20114 39887 40214 53004 84506 333 84635 86269 555 10=
40743 42965 00000 10155 20036 39084 40164 53009 555 10098 29045 30110=
40745 42660 81802 10132 20098 39074 40190 50002 8352/ 333 83635 88459 555 10=
40747 42965 01401 10092 20061 38653 40159 53003 555 10077 29081 32104 4////=
40754 42962 13402 10157 21014 38837 40143 58001 81030 333 81360 555 10082 29=
40762 42960 00905 10103 20076 38577 40150 52003 555 10089 29083 32010=
40766 42960 02402 10090 20053 38704 40155 53001 555 10072 29078 32603=
40768 42970 01902 10076 20049 38279 40156 53001 555 10063 29083 33407=
40769 41957 00000 10102 20050 38320 40148 55000 70500 555 10076 29070 30605=
40780 42960 01202 10116 20057 38691 40155 55000 555 10086 29067 32704=
40782 42962 01402 10101 20082 38879 40154 50004 555 10091 29088 32705 4////=
40785 42960 00000 10160 20122 39087 40145 58004 555 10138 29078 30506=
40791 42962 00000 10196 20068 39347 40137 55001 555 10129 29043 33309=
40792 42960 00000 10144 20071 38734 40138 50001 555 10106 29062 33013=
40798 42960 03103 10072 21006 37982 40133 50000 555 10038 29058 32210 42210=
40800 41950 00000 10164 20120 38471 40120 51004 70500 555 10138 29075 30207=
40809 41958 20202 10159 20040 38505 40096 57007 70500 81041 333 81360 555 10=
40811 42960 22601 10207 20093 30091 40116 50001 80001 333 82070 555 10146 29=
40812 42960 03301 10202 20112 39751 40114 51004 555 10152 29056 32702 4////=
40818 42960 03402 10110 21024 37995 40102 56002 555 10052 29039 32308 42414=
40821 41956 02904 10183 20056 38796 40129 51002 70600 555 10117 29043 33408 =
40829 42960 03408 10256 20063 39532 40064 53002 555 10153 29029 33412 42825=
40831 42960 33002 10229 20104 30118 40126 55001 80001 333 83070 555 10160 29=
40833 42960 03603 10214 20074 30088 40119 50002 555 10142 29040 33608=
40835 41950 00000 10173 20032 39318 40122 56002 70600 555 10105 29039 32206=
40841 42960 02103 10174 21046 38263 40083 50001 555 10079 29022 32115=
40848 41657 43002 10174 20046 38530 40092 57004 70610 81402 333=
40851 42960 00000 10178 20019 38276 40071 54000 555 10099 29035 33638 4////=
40854 42960 03203 10258 20066 38930 40052 56003 555 10152 29029 32705=
40856 42960 00206 10223 20050 38635 40062 58002 555 10131 29032 32808 43112=
40859 41620 50000 10194 20077 38707 40071 58006 70610 82406 333=
40875 41957 11002 10259 20225 30081 40092 58008 71000 80001 333 81070 555 10=
40879 41956 01803 10269 20039 39436 40075 56001 70500 555 10150 29023 33007 =
40882 41950 23202 10260 20215 30056 40090 56013 70500 80006 333 82269 555 10=
40883 41956 33002 10265 20239 30067 40089 58011 71000 83030 333 83360 555 10=
40893 41930 02705 10266 20257 30074 40080 58013 71000 555 10259 29095 32806=
40898 41950 02703 10269 20252 30068 40077 58017 71000 222// 00252 10701 555 =
40911 42/67 /2502 10171 20127 39733 40172 57005 333 91003=
40938 42/64 /2504 10155 20057 39056 40169 53000 333 91005=
40942 42/67 /0602 10062 20030 37790 40149 58005 333 91002=
40948 42/// /3601 10096 20010 38219 40149 51004 333 91001=
41397 22219 10080 2006/ 40225 54000 70200 822// 22233 00080 20201=
41497 71125 10260 20231 40130 57010 7//11 87797 22213 00220 21206 399// 4100=
41498 53208 10100 20056 40387 52/// 70221 83119 22233 00080 20702 329// 4080=
41630 21996 00000 10250 20141 40041 70400 333 59032 60007=
41672 219// 01306 10260 20144 40021 70500 333 59034 60007=
41696 22996 00000 10140 20066 38034 48535 333 58000 60007=
42001 24211 99259 70897 46/// /3503 10232 20166 30158 40162 92040 22200 0025=
42105 32996 03201 10226 20102 40044 333 59027=
43331 32596 40000 10280 20257 30039 40082 82503 333 58001=
44212 32999 02501 10047 21040 39063 40171 54000 333 91202=
44213 32999 00602 10060 21031 38748 40169 57003 333 91203=
44214 32998 00000 10037 21068 38275 40221 52004 333 91200=
44215 32998 21501 10016 21067 38388 40219 57004 80004 333 91202=
44217 32998 00000 11020 21067 37861 40298 57003 333 91202=
44218 329// 02002 10083 21081 38576 40171 55003 333 91203=
44219 32999 01102 10046 21088 38591 40192 54000 333 91203=
44265 329// 00802 10069 21058 38801 40151 56005 333 91202=
44266 329// 03408 10033 21084 37786 40234 58002 333 91208=
47003 32980 00000 10006 21011 30131 40135 54000=
47005 32970 41401 11027 21074 38585 58002 80001=
47008 31935 03201 10040 21019 30078 40129 53003 710//=
47014 32965 00000 10019 20003 39791 40194 52004=
47016 32970 00000 11014 21036 39325 40179 52008=
47020 32970 00000 10036 21014 39796 40158 52010=
47022 32970 00000 11035 21057 38812 54000=
47025 32965 00000 10047 20002 30113 40142 54000=
47028 32970 00000 10066 20062 30064 40154 52008=
47031 31/03 90000 11012 21022 38935 52003 74542=
47035 32965 00502 10088 20071 30145 40154 52004=
47037 32967 00000 10067 20029 30013 40135 57001=
47039 32970 00000 10045 20023 39986 40176 52006=
47041 32970 00503 10057 20032 30114 40141 54000=
47046 32969 00000 10054 20038 30106 40128 57010=
47050 32965 01401 10064 20038 30104 40136 52001=
47052 32965 00000 10002 21012 39822 40163 52002=
47055 32970 00000 10051 20006 30109 40154 57005=
47058 32960 01401 10071 20053 30110 40155 52005=
47060 31958 00000 10092 20064 30091 40149 52001 71000=
47061 32980 00000 10051 20006 30118 40162 52002=
47065 32970 00000 10073 20053 30078 40142 5////=
47067 32960 00000 10047 20017 3//// 4//// 5////=
47068 32960 00000 10066 20058 30119 40153 54000=
47069 32960 50000 10090 20002 30045 40135 53005 80002=
47070 32975 00000 10053 21008 30065 40152 53008=
47075 32980 20000 10038 20009 39751 40181 52004 80002=
48650 41556 73500 10266 20253 30064 40083 70522 81542 333 81630 83364 86078=
48803 32497 81402 10266 20248 39957 40068 56011 889// 333 58001 83894 88995=
48806 32498 80000 10230 20211 39319 40071 55010 888// 333 58007 83894 88696=
48808 32498 81402 10236 20208 39807 40085 57004 888// 333 58021 83894 88696=
48826 41597 81102 10238 20236 39943 40076 56013 70262 888// 333 58007 84895 88697=
48830 41495 83201 10211 20198 39787 40090 55001 79598 8692/ 333 58019 83894 86995 88499 96165=
48839 32497 80504 10238 20227 30013 40078 56015 888// 333 58007 85894 88696=
48840 31496 81401 10250 20244 30056 40062 57022 71022 888// 333 58009 82894 88696=
48845 32498 83601 10257 20248 30063 40070 57011 888// 333 58017 83894 88697=
48870 32798 71602 10273 20268 30070 40077 55003 82508 333 58007 82697 87299=
48877 32798 70000 10267 20248 30075 40080 55004 82508 333 58014 82697 87299=
48887 32598 73601 10268 20239 30079 40083 55003 81108 333 58005 81895 87299=
48920 32598 60901 10273 20248 30083 40086 55010 82208 333 58008 82895 86299=



SMUS40 KWBC 242100
AAXX 24214
40100 43970 09903 10233 20091 30078 40094 58023 333 58///=
40103 40100 43970 09903 10233 20091 30078 40094 58023 333 44214 32998 00000 =
40180 42460 62409 10203 20168 30067 40115 52005 86800=
40199 43/// /3406 10234 20092 30074 40100 52015=
40260 42960 02810 10200 21072 39357 40107 52010=
40265 42960 41106 10206 21103 39342 40101 54000 84030 333 84360=
40270 41957 31206 10221 21064 39220 40076 52003 70500 83030 333 83360=
40272 42560 52604 10192 21024 39285 40091 54001 83101 333 83830 83070=
40310 42960 00000 10170 20063 38906 48470 54003=
40340 42960 03315 10230 20103 40098 52016=
40356 42960 01017 10190 21020 39161 48496 333 59021 555 04410 50096=
40357 42960 01010 10210 20050 39502 40113 333 59002=
40360 42960 30908 10224 21050 39509 40076 83030 333 59041 83360=
40361 42960 01011 10239 21030 39355 40088 333 59027=
40362 42960 00912 10235 21050 39621 40115 333 59006=
40373 41659 31703 10262 20070 39733 40133 70700 81530 333 58011 81635=
40375 42960 02409 10230 21010 39217 40050 333 59037=
40394 41940 01506 10190 20050 39012 48507 70600 333 59016 555 04410 5 0097=
40400 42960 02103 10238 20160 30055 40082 333 59018=
40405 41657 21206 10190 20160 39389 40111 71044 82500 333 59009 82640=
40420 42960 23405 10228 20050 39909 40110 82030 333 58016 82360=
40430 42960 01507 10248 21040 39372 40065 333 59008=
40437 41650 83204 10235 20040 39466 40148 70600 84520 333 58027 84640 88458=
40439 42960 01304 10230 20140 30064 40082 333 59009=
41024 42960 00104 10256 20170 30063 40082 333 59002=
41030 42960 00000 10282 20160 39811 40074 333 58005=
41036 42960 02407 10220 20110 38551 48502 333 59002 555 04410 50060=
41055 42960 01510 10206 20180 38358 48500 333 59006 555 04410 50079=
41061 41530 73620 10250 20190 39416 40095 70794 87500 333 58008 87630=
41084 42960 02002 10233 20170 38841 48507 333 59003 555 04410 50067=
41112 24211 99307 70813 46/// ///// 1//// 92100 22200 00205 10903 20902 310/=
41114 24211 99276 70802 46/// ///// 1//// 92100 22200 00245 10802 20802 305/=
41128 42560 72506 10220 20180 38806 48523 85570 333 58008 85630 86358 555 04=
41136 41625 30305 10334 20130 39282 40048 70600 83400 333 58008 83640=
41140 41557 32404 10312 20240 30078 40082 70500 81430 333 58016 81630 83360=
41506 22995 00000 10135 20100 48493 333 59033 60007=
41508 22696 30000 10094 20085 48518 83400 333 56900 59005 60007 83630=
41515 22995 00000 10180 21027 48501 333 59012 60007=
41523 22996 00000 10140 20104 48496 333 59006 60007=
41535 22996 00000 10140 20061 48469 333 59008 60007=
41560 22696 51805 10200 21005 38269 48487 83230 333 59009 60007=
41571 129// 30000 10230 20114 39492 40059 80001 333 56009 59021 60007=
41594 219// 20504 10250 20120 39830 40041 70500 80001 333 56009 59003 60007=
41598 73416 10120 20120 40287 51010 70222 8746/ 22263 00180 20503 310// 4060=
41600 22996 00000 10215 20166 40046 333 59028 60007=
41620 32995 01303 10220 20015 48484 333 59013=
41624 22996 00000 10245 20182 40039 333 59034 60007=
41640 21996 10260 20122 40046 70500 333 59017 60007=
41660 219// 02304 10180 21005 38425 48513 70500 333 58001 60007=
41678 22996 00000 10260 20122 40053 333 59027 60007=
41697 22996 00000 10278 20092 40034 333 59033 60007=
41700 21995 00000 10270 20101 40034 70500 333 59026 60007=
41710 21996 00504 10290 21001 40027 70600 333 59005 60007=
41715 22996 00000 10290 20108 40053 333 59025 60007=
41718 21996 00000 10270 20114 40030 70500 333 59048 60007=
41725 22996 00000 10260 20111 40036 333 59039 60007=
41739 22996 02306 10260 20107 48517 333 59014 60007=
41744 22997 00000 10250 20054 48502 333 59008 60007=
41749 21996 00000 10270 20166 40049 70500 333 59023 60007=
41756 21994 00000 10270 20256 40097 71000 333 59010 60007=
41759 22995 01802 10255 20210 40099 333 59012 60007=
41764 32996 02106 10260 20199 30005 40054 333 59025 60007=
41768 22996 02304 10275 20132 40065 333 59019 60007=
41780 22996 02304 10275 20216 30059 40086 333 59001 60007=
41785 22996 02704 10265 20160 40078 333 59004 60007=
42071 31996 00000 10220 20153 40040 70500 333 59025=
42097 24211 99257 70837 46/// ///// 1//// 92100 22200 00253 10401 20401 7000=
42111 31995 00000 10204 20122 39350 40039 70500 333 59016=
42165 32996 01802 10290 21008 40034 333 59042=
42170 32996 00000 10224 20058 40044 333 59030=
42182 31995 00000 10236 20141 40046 70500 333 59022=
42328 32996 02301 10280 20117 40032 333 59021=
42339 31995 00000 10284 20026 40050 70500 333 59024=
42348 31995 02903 10290 20009 40053 70500 333 59018=
42361 31996 00000 10238 20118 40046 70500 333 59019=
42379 31995 10208 20087 40041 70500 333 59013=
42452 32996 00000 10284 20026 40061 333 59017=
42475 42587 31995 00000 10266 20090 40063 70500 333 59011=
42542 31996 03202 10218 20048 39500 40076 70500 333 59015=
42559 32996 03603 10246 20059 40051 333 59018=
42571 32996 00000 10250 20060 40049 333 59017=
42587 31995 00000 10266 20090 40063 70500 333 59011=
42634 32996 02702 10260 20151 40075 333 59017=
42647 31996 02903 10262 20106 40069 70400 333 59008=
42667 32996 00000 10242 20042 39482 40061 333 58018=
42675 32996 00000 10240 20078 40068 333 59010=
42701 31995 00000 10248 20116 39345 40059 70500 333 59011=
42737 32996 02708 10260 20199 40077 333 59010=
42754 32996 02705 10264 20073 39442 40064 333 59006=
42779 32996 00000 10254 20078 39375 40059 333 59012=
42798 31995 00000 10280 20218 40050 70500 333 59018=
42809 31495 50000 10280 20260 40052 70511 83530 333 59005 83618 84360=
42840 32996 00000 10272 20212 40071 333 59009=
42867 31995 02502 10232 20076 40067 70500 333 59006=
42874 43110 32596 50000 10250 20232 40079 85500 333 59006 42634 32996 02702 =
42886 32996 00000 10286 20144 40057 333 59007=
42895 32596 52302 10274 20239 40052 83530 333 58000 83620 84360=
42909 62049 294066 293063 292069 295065 293070 293067 82908 92045=
42971 31596 22302 10276 20256 40054 70521 81530 333 59015 81620=
43003 31995 00000 10270 20235 40076 70500 333 59007=
43041 22996 00000 10228 20188 39470 40084 333 58003 6001/=
43063 32996 00000 10208 20119 39458 40084 333 59008=
43110 32596 50000 10250 20232 40079 85500 333 59006 85620=
43117 32996 00202 10286 20103 40057 333 59004=
43150 21596 52303 10248 20218 30000 40075 70511 82531 333 58002 6024/ 82620 =
43185 32596 10000 10280 20257 30056 40059 81500 333 58002 81620=
43189 22596 50000 10254 20216 30050 40059 83520 333 59010 6001/=
43192 32996 00000 10274 20255 40074 333 59004=
43198 32996 30000 10238 20169 39255 40072 80001 333 59005 83075=
43201 32997 02308 10250 20230 39354 40066 333 59007=
43213 32996 00000 10306 20182 39751 40061 333 58013=
43220 32596 21604 10288 20245 30059 40066 81530 333 58010=
43221 32596 21602 10294 20257 30050 40063 82500 333 58001=
43233 32996 22305 10254 20207 39286 40083 80001 333 59002=
43237 32996 39902 10290 20169 39671 40057 80002 333 58001 83070=
43243 32596 30000 10290 20256 30049 40073 82501 333 58008=
43245 32596 60000 10294 20260 30040 40066 82532 333 58000=
43279 32596 61802 10284 20256 30061 40078 86500 333 59004 86620=
43284 32496 60000 10280 20249 39965 40079 82531 333 59001 82615=
43295 22496 30000 10234 20188 39076 48489 82501 333 59002 6004/ 82615=
43321 31496 71805 10278 20231 39637 40078 71022 83531 333 59006 83615 85358=
43344 31496 39902 10292 20237 39977 40076 70511 81531 333 58002 81618=
43346 32596 31406 10292 20261 30064 40072 81501 333 59006 81620 83075=
43368 42559 32996 03603 10246 20059 40051 333 59018=
43371 43321 31496 71805 10278 20231 39637 40078 71022 83531 333 59006 83615 =
43377 32596 22906 10284 20256 30032 40073 82500 333 59008=
44454 42456 20000 10161 20109 38633 48472 82100 333 59011=
45007 42566 70608 10232 20170 30101 40110 53001 84531 333 58022 83630 85080=
45011 47657 83609 10215 20188 40111 52001 72360 333 58023=
45032 36/// /3301 10212 20180 30096 40113 52001=
45035 36/// /0404 10219 20169 30062 40104 52001=
45039 36/// /0302 10231 20175 30096 40111 52001=
45044 36/// /0005 10219 20192 30014 40106 52002=
47402 45/70 /2601 10049 20019 30146 40156 53003=
47404 45/70 /1105 10032 20008 30124 40136 55000=
47405 45/70 /2002 10012 21002 30139 40159 53006=
47411 45/70 /2301 10072 20045 30093 40125 55003=
47413 45/70 /0604 10057 20027 30068 40132 53001=
47417 46/// /1602 10051 20042 30116 40170 53006=
47423 46/// /0103 10069 20063 30064 40125 56004=
47424 45/70 /0403 10072 20055 30116 40126 55004=
47428 47/61 /0204 10075 20046 30087 40102 55003 76166=
47433 45/70 /0502 10046 20034 39897 40128 56004=
47435 45/67 /2801 10052 20029 30137 40159 52005=
47440 45/70 /3405 10062 20045 30122 40164 53003=
47512 47/57 /2003 10113 20112 30023 40069 57013 76160=
47520 47/70 /1312 10127 20095 39924 40045 56013 76160=
47574 47/57 /0102 10094 20088 39969 40051 51001 76166=
47576 47/58 /0707 10068 20059 30112 40118 58007 76166=
47588 46/// /3402 10109 20106 39870 40053 57008=
47592 47/68 /0511 10100 20096 30013 40065 56009 76160=
47595 46/// /0604 10113 20107 39984 40067 50000=
47597 47/30 /0201 10137 20137 39637 40052 55002 76266=
47606 47/28 /1901 10148 20148 30000 40015 55004 76166=
47607 46/// /2501 10152 20152 39994 40014 55005=
47610 46/// /2606 10150 20139 39538 40020 56007=
47615 46/// /0503 10152 20152 39883 40047 56006=
47616 46/// /2410 10155 20141 30002 40022 53003=
47617 47/21 /0701 10137 20136 39374 40016 58018 76266=
47620 47/20 /3602 10134 20131 39166 40027 58014 76266=
47622 47/50 /0704 10098 20098 38919 48398 56007 76266=
47626 46/// /3103 10147 20141 30008 40046 58007=
47629 46/// /1803 10175 20170 30012 40048 56009=
47631 47/58 /2705 10145 20132 30021 40036 53017 76166=
47632 46/// /0103 10187 20184 39975 49995 56032=
47637 47/24 /3103 10158 20157 39412 40012 58027 76266=
47640 47/39 /0504 10143 20138 39063 48399 58013 76266=
47641 47/15 /3101 10136 20136 39773 40047 56009 76160=
47649 47/33 /1203 10167 20164 39818 40005 55003 76266=
47651 46/// /2804 10186 20171 39968 49989 56023=
47653 47/34 /1719 10191 20189 39982 49991 56036 76266=
47654 47/44 /1617 10190 20185 39953 40008 58039 76266=
47656 46/// /1607 10189 20183 30014 40033 58020=
47657 47/50 /0701 10179 20176 30017 40043 57012 76266=
47666 47/20 /2018 10190 20190 39983 40045 56016 76166=
47668 47/11 /2601 10167 20167 39962 40042 56014 76166=
47670 46/// /1912 10187 20177 39993 40043 56012=
47672 47/58 /1811 10195 20176 30047 40055 56009 76160=
47674 47/56 /2114 10180 20170 30044 40060 56011 76160=
47677 47/69 /2014 10210 20188 30007 40053 56016 72360=
47682 47/62 /1812 10189 20176 30044 40051 56008 76160=
47684 47/16 /2701 10181 20181 39925 49991 56026 76266=
47690 47/56 /2703 10101 20098 38622 48411 56006 76266=
47742 47/70 /3406 10130 20114 30071 40076 53016 76166=
47744 47/70 /3208 10128 20109 30065 40075 53014 72360=
47747 47/66 /3304 10137 20121 30045 40052 53028 76160=
47750 47/62 /2807 10141 20125 30032 40037 52020 76166=
47754 47/68 /0106 10133 20114 30085 40089 53013 76166=
47756 47/70 /3007 10134 20113 39868 40042 53019 70060=
47759 46/// /2703 10179 20169 39948 40009 53012=
47761 46/// /3609 10149 20144 39908 40017 55001=
47766 45/70 /3405 10147 20097 30061 40067 53023=
47767 47/70 /2603 10138 20115 30055 40059 53023 70060=
47768 46/// /2608 10145 20120 30038 40046 53028=
47769 47/70 /2807 10151 20142 39978 40025 53027 72360=
47770 46/// /2503 10168 20167 39975 40011 53012=
47776 47/70 /2616 10146 20132 39948 40031 53027 70060=
47777 46/// /2918 10164 20146 30002 40024 53026=
47780 46/// /2106 10171 20170 39887 40008 53007=
47784 47/70 /3605 10134 20104 30055 40079 53015 76160=
47805 45/68 /0112 10132 20098 30030 40100 53015=
47809 47/57 /3506 10126 20117 30051 40096 53015 76166=
47812 47/69 /3608 10138 20099 30088 40095 53018 72360=
47813 46/// /3407 10142 20106 30052 40091 53020=
47814 47/70 /2803 10132 20119 39987 40087 53014 70060=
47818 47/25 /0514 10101 20101 39297 40082 51013 72030=
47822 45/70 /3205 10166 20146 30027 40052 53025=
47823 47/59 /0206 10146 20138 30028 40078 53012 76160=
47824 45/70 /2604 10137 20123 39896 40070 51017=
47829 45/70 /2702 10147 20133 39875 40058 51016=
47831 45/70 /3109 10162 20147 30033 40070 53013=
47835 45/70 /2501 10177 20162 30030 40047 53020=
47836 45/68 /3217 10185 20163 30020 40064 53014=
47838 45/70 /3104 10153 20128 30063 40081 53015=
47890 47/70 /2307 10144 20128 30051 40057 53024 70060=
47892 47/70 /3110 10144 20126 30046 40064 51025 70060=
47893 46/// /3602 10184 20167 30012 40018 53025=
47895 46/// /2910 10175 20142 30022 40029 53024=
47897 45/70 /2703 10154 20129 30029 40042 51024=
47912 47/64 /0119 10216 20184 30080 40122 53002 76166=
47917 47/18 /0207 10214 20180 30110 40123 53006 76160=
47929 47/66 /3308 10199 20182 30103 40110 53005 76160=
47940 47/63 /3204 10206 20187 30094 40102 52009 76160=
47942 47/63 /3112 10207 20194 30061 40095 53006 72360=
47991 46/// /0911 10247 20218 30172 40182 53013=
48080 91102=
48601 41558 70101 10256 20236 30079 40083 70522 82542 333 82625 83365 87077=
48615 41560 72003 10247 20234 30075 40081 70322 83532 333 83620 87078=
48620 41559 70600 10251 20238 30074 40083 70522 83538 333 83630 83365 87276=
48647 41558 73202 10261 20241 30061 40086 57010 70522 81532 333 81626 83364 87077=
48657 41562 70302 10256 20244 30062 40080 70522 82532 333 82625 86078=
48665 41559 70400 10259 20250 30079 40089 70522 81572 333 81627 85364 85077=
48698 21462 63402 10270 20249 30066 40085 70522 81102 333 60007 81818 86080=